Time;durP1;ratioP1;P1;durP2;ratioP2;P2;SDS_P1;SDS_P2;PMS_P1;PMS_P2;Temp;Humidity;BMP_temperature;BMP_pressure;BME280_temperature;BME280_humidity;BME280_pressure;Samples;Min_cycle;Max_cycle;Signal;HPM_P1;HPM_P2
2023/11/25 00:02:01;;;;;;;0.10;0.10;;;;;;;;;;5017362;28;20191;-89
2023/11/25 00:04:27;;;;;;;0.10;0.10;;;;;;;;;;5017263;28;20045;-88
2023/11/25 00:06:54;;;;;;;0.10;0.10;;;;;;;;;;5017135;28;20044;-88
2023/11/25 00:09:21;;;;;;;0.10;0.10;;;;;;;;;;5017221;28;20052;-88
2023/11/25 00:11:48;;;;;;;0.10;0.10;;;;;;;;;;5017248;28;20130;-89
2023/11/25 00:14:14;;;;;;;0.10;0.10;;;;;;;;;;5001163;28;20203;-87
2023/11/25 00:16:40;;;;;;;0.10;0.10;;;;;;;;;;5016437;28;20392;-89
2023/11/25 00:19:06;;;;;;;0.10;0.10;;;;;;;;;;5017096;28;20041;-89
2023/11/25 00:21:32;;;;;;;0.10;0.10;;;;;;;;;;5033448;28;20052;-89
2023/11/25 00:23:58;;;;;;;0.10;0.10;;;;;;;;;;5000920;28;20052;-89
2023/11/25 00:26:25;;;;;;;0.10;0.10;;;;;;;;;;5016500;28;20088;-88
2023/11/25 00:28:51;;;;;;;0.10;0.10;;;;;;;;;;5017175;28;20049;-87
2023/11/25 00:31:17;;;;;;;0.10;0.10;;;;;;;;;;5016577;28;20058;-88
2023/11/25 00:33:43;;;;;;;0.10;0.10;;;;;;;;;;5000229;28;20480;-88
2023/11/25 00:36:11;;;;;;;0.10;0.10;;;;;;;;;;5000455;28;20099;-89
2023/11/25 00:38:37;;;;;;;0.10;0.10;;;;;;;;;;5016896;28;20558;-88
2023/11/25 00:41:05;;;;;;;0.10;0.10;;;;;;;;;;5032974;28;20041;-88
2023/11/25 00:43:34;;;;;;;0.10;0.10;;;;;;;;;;5000306;28;20045;-88
2023/11/25 00:46:02;;;;;;;0.10;0.10;;;;;;;;;;5016919;28;20045;-89
2023/11/25 00:48:31;;;;;;;0.10;0.10;;;;;;;;;;5000452;28;20481;-88
2023/11/25 00:50:57;;;;;;;0.10;0.10;;;;;;;;;;5017015;28;20401;-88
2023/11/25 00:53:23;;;;;;;0.10;0.10;;;;;;;;;;5032602;28;20037;-89
2023/11/25 00:55:49;;;;;;;0.10;0.10;;;;;;;;;;5000530;28;20049;-88
2023/11/25 00:58:15;;;;;;;0.10;0.10;;;;;;;;;;5016340;28;20134;-89
2023/11/25 01:00:41;;;;;;;0.10;0.10;;;;;;;;;;5016167;28;20044;-88
2023/11/25 01:03:07;;;;;;;0.10;0.10;;;;;;;;;;5016115;28;20037;-88
2023/11/25 01:05:34;;;;;;;0.10;0.10;;;;;;;;;;4999662;28;20045;-88
2023/11/25 01:08:00;;;;;;;0.10;0.10;;;;;;;;;;5016059;28;20374;-87
2023/11/25 01:10:26;;;;;;;0.10;0.10;;;;;;;;;;5015863;28;20040;-88
2023/11/25 01:12:52;;;;;;;0.10;0.10;;;;;;;;;;5016024;28;20045;-88
2023/11/25 01:15:19;;;;;;;0.20;0.20;;;;;;;;;;5015891;28;20423;-88
2023/11/25 01:17:45;;;;;;;0.10;0.10;;;;;;;;;;5032235;28;20042;-88
2023/11/25 01:20:13;;;;;;;0.10;0.10;;;;;;;;;;4999403;28;20129;-89
2023/11/25 01:22:39;;;;;;;0.20;0.20;;;;;;;;;;5016246;28;20045;-89
2023/11/25 01:25:09;;;;;;;0.10;0.10;;;;;;;;;;5032018;28;20072;-88
2023/11/25 01:27:35;;;;;;;0.85;0.22;;;;;;;;;;5016087;28;20029;-89
2023/11/25 01:30:04;;;;;;;0.10;0.10;;;;;;;;;;4999019;28;20366;-88
2023/11/25 01:32:30;;;;;;;0.10;0.10;;;;;;;;;;5015542;28;20037;-88
2023/11/25 01:34:56;;;;;;;0.10;0.10;;;;;;;;;;5015559;28;20048;-88
2023/11/25 01:37:26;;;;;;;0.10;0.10;;;;;;;;;;5031963;28;20046;-86
2023/11/25 01:39:52;;;;;;;0.10;0.10;;;;;;;;;;4999709;28;20041;-88
2023/11/25 01:42:19;;;;;;;0.10;0.10;;;;;;;;;;5031913;28;20064;-89
2023/11/25 01:44:44;;;;;;;0.10;0.10;;;;;;;;;;5015402;28;20037;-89
2023/11/25 01:47:11;;;;;;;0.10;0.10;;;;;;;;;;5015385;28;20057;-89
2023/11/25 01:49:37;;;;;;;0.10;0.10;;;;;;;;;;4999095;28;20037;-89
2023/11/25 01:52:04;;;;;;;0.10;0.10;;;;;;;;;;5015408;28;20244;-89
2023/11/25 01:54:30;;;;;;;0.10;0.10;;;;;;;;;;5031919;28;20469;-88
2023/11/25 01:56:57;;;;;;;0.10;0.10;;;;;;;;;;5015228;28;20091;-88
2023/11/25 01:59:23;;;;;;;0.10;0.10;;;;;;;;;;5015230;28;20059;-88
2023/11/25 02:01:49;;;;;;;0.10;0.10;;;;;;;;;;4998932;28;20141;-89
2023/11/25 02:04:15;;;;;;;0.10;0.10;;;;;;;;;;4999070;28;20100;-89
2023/11/25 02:06:41;;;;;;;0.10;0.10;;;;;;;;;;5015244;28;20103;-88
2023/11/25 02:09:07;;;;;;;0.10;0.10;;;;;;;;;;5015370;28;20041;-89
2023/11/25 02:11:42;;;;;;;0.10;0.10;;;;;;;;;;5014965;28;20530;-89
2023/11/25 02:14:08;;;;;;;0.30;0.30;;;;;;;;;;4998597;28;20037;-89
2023/11/25 02:16:34;;;;;;;0.10;0.10;;;;;;;;;;5014798;28;20053;-88
2023/11/25 02:19:01;;;;;;;0.10;0.10;;;;;;;;;;4998551;28;20052;-88
2023/11/25 02:21:27;;;;;;;0.10;0.10;;;;;;;;;;4998517;28;20041;-88
2023/11/25 02:23:53;;;;;;;0.10;0.10;;;;;;;;;;5031922;28;20049;-89
2023/11/25 02:26:20;;;;;;;0.10;0.10;;;;;;;;;;5014691;28;20042;-88
2023/11/25 02:28:46;;;;;;;0.10;0.10;;;;;;;;;;4998819;28;20045;-88
2023/11/25 02:31:12;;;;;;;0.10;0.10;;;;;;;;;;5014468;28;20519;-89
2023/11/25 02:33:39;;;;;;;0.10;0.10;;;;;;;;;;5015136;28;20041;-88
2023/11/25 02:36:07;;;;;;;0.20;0.20;;;;;;;;;;5015226;28;20392;-89
2023/11/25 02:38:33;;;;;;;0.10;0.10;;;;;;;;;;4998524;28;20209;-88
2023/11/25 02:40:59;;;;;;;0.10;0.10;;;;;;;;;;5014818;28;20517;-90
2023/11/25 02:43:26;;;;;;;0.10;0.10;;;;;;;;;;5031246;28;20060;-90
2023/11/25 02:45:52;;;;;;;0.10;0.10;;;;;;;;;;5014450;28;20406;-89
2023/11/25 02:48:19;;;;;;;0.10;0.10;;;;;;;;;;5031096;28;20440;-89
2023/11/25 02:50:45;;;;;;;0.10;0.10;;;;;;;;;;5014453;28;20576;-90
2023/11/25 02:53:11;;;;;;;0.10;0.10;;;;;;;;;;5014815;28;20049;-89
2023/11/25 02:55:37;;;;;;;0.10;0.10;;;;;;;;;;4998349;28;20046;-89
2023/11/25 02:58:03;;;;;;;0.10;0.10;;;;;;;;;;5015002;28;20052;-90
2023/11/25 03:00:30;;;;;;;0.10;0.10;;;;;;;;;;5014969;28;20052;-90
2023/11/25 03:03:13;;;;;;;0.10;0.10;;;;;;;;;;4998953;28;20045;-87
2023/11/25 03:05:45;;;;;;;0.38;0.32;;;;;;;;;;5031412;28;20046;-90
2023/11/25 03:08:12;;;;;;;0.10;0.10;;;;;;;;;;5014683;28;20037;-89
2023/11/25 03:10:41;;;;;;;0.10;0.10;;;;;;;;;;5014745;28;20045;-89
2023/11/25 03:13:09;;;;;;;0.10;0.10;;;;;;;;;;4997989;28;20120;-90
2023/11/25 03:15:35;;;;;;;0.10;0.10;;;;;;;;;;5014616;28;20485;-90
2023/11/25 03:18:01;;;;;;;0.10;0.10;;;;;;;;;;4998407;28;20459;-89
2023/11/25 03:20:27;;;;;;;0.10;0.10;;;;;;;;;;5014608;28;20511;-89
2023/11/25 03:22:53;;;;;;;0.10;0.10;;;;;;;;;;5014333;28;20107;-90
2023/11/25 03:25:22;;;;;;;0.10;0.10;;;;;;;;;;5030625;28;20489;-89
2023/11/25 03:27:48;;;;;;;0.10;0.10;;;;;;;;;;4998498;28;20048;-89
2023/11/25 03:30:15;;;;;;;0.10;0.10;;;;;;;;;;5013939;28;20443;-89
2023/11/25 03:32:41;;;;;;;0.10;0.10;;;;;;;;;;5014259;28;20508;-88
2023/11/25 03:35:07;;;;;;;0.10;0.10;;;;;;;;;;4998292;28;20369;-89
2023/11/25 03:37:33;;;;;;;0.10;0.10;;;;;;;;;;5014144;28;20046;-90
2023/11/25 03:39:59;;;;;;;0.10;0.10;;;;;;;;;;5014127;28;20037;-89
2023/11/25 03:42:25;;;;;;;0.10;0.10;;;;;;;;;;5030174;28;20128;-88
2023/11/25 03:44:51;;;;;;;0.10;0.10;;;;;;;;;;4997535;28;20086;-88
2023/11/25 03:47:18;;;;;;;0.10;0.10;;;;;;;;;;5013949;28;20037;-89
2023/11/25 03:49:44;;;;;;;0.10;0.10;;;;;;;;;;5013801;28;20037;-88
2023/11/25 03:52:11;;;;;;;0.10;0.10;;;;;;;;;;5032711;28;20052;-89
2023/11/25 03:54:38;;;;;;;0.10;0.10;;;;;;;;;;5000985;28;20044;-88
2023/11/25 03:57:04;;;;;;;0.10;0.10;;;;;;;;;;5033745;28;20389;-88
2023/11/25 03:59:30;;;;;;;0.10;0.10;;;;;;;;;;5033763;28;20045;-89
2023/11/25 04:01:56;;;;;;;0.10;0.10;;;;;;;;;;5000810;28;20531;-89
2023/11/25 04:04:22;;;;;;;0.10;0.10;;;;;;;;;;5033572;28;20049;-89
2023/11/25 04:06:48;;;;;;;0.10;0.10;;;;;;;;;;5033571;28;20478;-88
2023/11/25 04:09:14;;;;;;;0.10;0.10;;;;;;;;;;5000746;28;20038;-88
2023/11/25 04:11:43;;;;;;;0.10;0.10;;;;;;;;;;5017025;28;20056;-89
2023/11/25 04:14:09;;;;;;;0.10;0.10;;;;;;;;;;5017068;28;20049;-89
2023/11/25 04:16:35;;;;;;;0.45;0.43;;;;;;;;;;5017165;28;20045;-89
2023/11/25 04:19:01;;;;;;;0.10;0.10;;;;;;;;;;5033655;28;20053;-89
2023/11/25 04:21:27;;;;;;;0.10;0.10;;;;;;;;;;5017048;28;20128;-89
2023/11/25 04:23:55;;;;;;;0.10;0.10;;;;;;;;;;5000666;28;20077;-88
2023/11/25 04:26:21;;;;;;;0.10;0.10;;;;;;;;;;5000883;28;20128;-88
2023/11/25 04:28:47;;;;;;;0.10;0.10;;;;;;;;;;5000897;28;20042;-89
2023/11/25 04:31:14;;;;;;;0.10;0.10;;;;;;;;;;5016815;28;20057;-89
2023/11/25 04:33:40;;;;;;;0.10;0.10;;;;;;;;;;5000790;28;20048;-89
2023/11/25 04:36:06;;;;;;;0.10;0.10;;;;;;;;;;5016866;28;20037;-90
2023/11/25 04:38:33;;;;;;;0.10;0.10;;;;;;;;;;5000631;28;20049;-90
2023/11/25 04:40:59;;;;;;;0.10;0.10;;;;;;;;;;5016686;28;20045;-89
2023/11/25 04:43:25;;;;;;;0.10;0.10;;;;;;;;;;5016759;28;20531;-88
2023/11/25 04:45:51;;;;;;;0.10;0.10;;;;;;;;;;5000067;28;20045;-89
2023/11/25 04:48:17;;;;;;;0.10;0.10;;;;;;;;;;5032937;28;20095;-88
2023/11/25 04:50:43;;;;;;;0.10;0.10;;;;;;;;;;4999976;28;20033;-88
2023/11/25 04:53:09;;;;;;;0.10;0.10;;;;;;;;;;5033037;28;20045;-88
2023/11/25 04:55:35;;;;;;;0.10;0.10;;;;;;;;;;5032851;28;20440;-89
2023/11/25 04:58:01;;;;;;;0.10;0.10;;;;;;;;;;5016373;28;20052;-89
2023/11/25 05:00:27;;;;;;;0.10;0.10;;;;;;;;;;5016051;28;20099;-89
2023/11/25 05:02:53;;;;;;;0.10;0.10;;;;;;;;;;4999576;28;20068;-88
2023/11/25 05:05:19;;;;;;;0.10;0.10;;;;;;;;;;5016078;28;20045;-88
2023/11/25 05:07:45;;;;;;;0.10;0.10;;;;;;;;;;5015961;28;20088;-89
2023/11/25 05:10:11;;;;;;;0.10;0.10;;;;;;;;;;4999696;28;20037;-89
2023/11/25 05:12:37;;;;;;;0.10;0.10;;;;;;;;;;5000036;28;20041;-88
2023/11/25 05:15:04;;;;;;;0.10;0.10;;;;;;;;;;5016112;28;20037;-89
2023/11/25 05:17:29;;;;;;;0.10;0.10;;;;;;;;;;5016091;28;20458;-88
2023/11/25 05:19:55;;;;;;;0.10;0.10;;;;;;;;;;5015762;28;20117;-89
2023/11/25 05:22:21;;;;;;;0.10;0.10;;;;;;;;;;5015789;28;20057;-90
2023/11/25 05:24:48;;;;;;;0.10;0.10;;;;;;;;;;5032204;28;20395;-88
2023/11/25 05:27:14;;;;;;;0.10;0.10;;;;;;;;;;5016055;28;20357;-88
2023/11/25 05:29:40;;;;;;;0.10;0.10;;;;;;;;;;5015693;28;20038;-90
2023/11/25 05:32:09;;;;;;;0.10;0.10;;;;;;;;;;5015680;28;20054;-89
2023/11/25 05:34:36;;;;;;;0.10;0.10;;;;;;;;;;5016424;28;20451;-88
2023/11/25 05:37:03;;;;;;;0.10;0.10;;;;;;;;;;5032135;28;20137;-89
2023/11/25 05:39:29;;;;;;;0.10;0.10;;;;;;;;;;4999492;28;20448;-89
2023/11/25 05:41:55;;;;;;;0.10;0.10;;;;;;;;;;4999233;28;20112;-89
2023/11/25 05:44:21;;;;;;;0.10;0.10;;;;;;;;;;5015374;28;20045;-89
2023/11/25 05:46:47;;;;;;;0.10;0.10;;;;;;;;;;5031778;28;20046;-89
2023/11/25 05:49:13;;;;;;;0.10;0.10;;;;;;;;;;5015298;28;20049;-88
2023/11/25 05:51:42;;;;;;;0.10;0.10;;;;;;;;;;5015398;28;20072;-89
2023/11/25 05:54:08;;;;;;;0.10;0.10;;;;;;;;;;5015731;28;20068;-90
2023/11/25 05:56:34;;;;;;;0.10;0.10;;;;;;;;;;5015765;28;20046;-90
2023/11/25 05:59:02;;;;;;;0.10;0.10;;;;;;;;;;5015751;28;20045;-90
2023/11/25 06:01:28;;;;;;;0.10;0.10;;;;;;;;;;4999462;28;20175;-90
2023/11/25 06:03:54;;;;;;;0.10;0.10;;;;;;;;;;4998867;28;20045;-90
2023/11/25 06:06:21;;;;;;;0.10;0.10;;;;;;;;;;5015319;28;20042;-89
2023/11/25 06:08:50;;;;;;;0.10;0.10;;;;;;;;;;4999481;28;20048;-90
2023/11/25 06:11:22;;;;;;;0.20;0.20;;;;;;;;;;4999477;28;20037;-89
2023/11/25 06:13:48;;;;;;;0.10;0.10;;;;;;;;;;5014919;28;20033;-90
2023/11/25 06:16:17;;;;;;;0.10;0.10;;;;;;;;;;5015432;28;20041;-92
2023/11/25 06:18:43;;;;;;;0.38;0.15;;;;;;;;;;4998810;28;20148;-89
2023/11/25 06:21:10;;;;;;;0.10;0.10;;;;;;;;;;4999392;28;20046;-90
2023/11/25 06:23:36;;;;;;;0.20;0.20;;;;;;;;;;4999237;28;20042;-90
2023/11/25 06:26:02;;;;;;;0.10;0.10;;;;;;;;;;5031683;28;20088;-91
2023/11/25 06:28:28;;;;;;;0.10;0.10;;;;;;;;;;5015330;28;20045;-89
2023/11/25 06:30:54;;;;;;;0.13;0.13;;;;;;;;;;4998685;28;20084;-89
2023/11/25 06:33:22;;;;;;;0.10;0.10;;;;;;;;;;5015809;28;20389;-90
2023/11/25 06:35:48;;;;;;;0.10;0.10;;;;;;;;;;5015427;28;20051;-89
2023/11/25 06:38:14;;;;;;;0.10;0.10;;;;;;;;;;5015162;28;20128;-90
2023/11/25 06:40:40;;;;;;;0.10;0.10;;;;;;;;;;5015430;28;20128;-90
2023/11/25 06:43:06;;;;;;;0.10;0.10;;;;;;;;;;5015907;28;20072;-89
2023/11/25 06:45:35;;;;;;;0.10;0.10;;;;;;;;;;5014879;28;20053;-89
2023/11/25 06:48:02;;;;;;;0.10;0.10;;;;;;;;;;4998944;28;20474;-90
2023/11/25 06:50:28;;;;;;;0.10;0.10;;;;;;;;;;4998974;28;20195;-90
2023/11/25 06:52:54;;;;;;;0.10;0.10;;;;;;;;;;5014774;28;20126;-91
2023/11/25 06:55:20;;;;;;;0.10;0.10;;;;;;;;;;4998527;28;20049;-89
2023/11/25 06:57:49;;;;;;;0.10;0.10;;;;;;;;;;5014729;28;20507;-89
2023/11/25 07:00:16;;;;;;;0.10;0.10;;;;;;;;;;5014563;28;20053;-89
2023/11/25 07:02:42;;;;;;;0.10;0.10;;;;;;;;;;4998781;28;20045;-90
2023/11/25 07:05:09;;;;;;;0.10;0.10;;;;;;;;;;5015085;28;20081;-91
2023/11/25 07:07:35;;;;;;;0.10;0.10;;;;;;;;;;5015393;28;20042;-90
2023/11/25 07:10:01;;;;;;;0.10;0.10;;;;;;;;;;5014655;28;20033;-89
2023/11/25 07:12:29;;;;;;;0.55;0.55;;;;;;;;;;4998076;28;20080;-89
2023/11/25 07:14:55;;;;;;;0.10;0.10;;;;;;;;;;5014376;28;20033;-89
2023/11/25 07:17:21;;;;;;;0.10;0.10;;;;;;;;;;5030842;28;20041;-89
2023/11/25 07:19:47;;;;;;;0.10;0.10;;;;;;;;;;4998088;28;20048;-88
2023/11/25 07:22:14;;;;;;;0.10;0.10;;;;;;;;;;5014490;28;20473;-88
2023/11/25 07:24:40;;;;;;;0.35;0.35;;;;;;;;;;4998210;28;20156;-87
2023/11/25 07:27:07;;;;;;;0.10;0.10;;;;;;;;;;5017941;28;20049;-88
2023/11/25 07:29:33;;;;;;;0.10;0.10;;;;;;;;;;5001624;28;20132;-89
2023/11/25 07:32:00;;;;;;;0.10;0.10;;;;;;;;;;5020392;28;20508;-89
2023/11/25 07:34:28;;;;;;;0.10;0.10;;;;;;;;;;5021794;28;20508;-89
2023/11/25 07:36:55;;;;;;;0.10;0.10;;;;;;;;;;5018175;28;20045;-89
2023/11/25 07:39:22;;;;;;;0.10;0.10;;;;;;;;;;5017624;28;20041;-89
2023/11/25 07:41:54;;;;;;;0.10;0.10;;;;;;;;;;5017786;28;20041;-89
2023/11/25 07:44:24;;;;;;;0.10;0.10;;;;;;;;;;5001755;28;20518;-88
2023/11/25 07:46:50;;;;;;;0.10;0.10;;;;;;;;;;5001482;28;20464;-89
2023/11/25 07:49:18;;;;;;;0.10;0.10;;;;;;;;;;5017585;28;20041;-88
2023/11/25 07:51:44;;;;;;;0.10;0.10;;;;;;;;;;5017691;28;20037;-87
2023/11/25 07:54:11;;;;;;;0.10;0.10;;;;;;;;;;5017357;28;20120;-87
2023/11/25 07:56:37;;;;;;;0.10;0.10;;;;;;;;;;5001066;28;20053;-88
2023/11/25 07:59:04;;;;;;;0.20;0.20;;;;;;;;;;5017317;28;20048;-87
2023/11/25 08:01:30;;;;;;;0.10;0.10;;;;;;;;;;5017468;28;20128;-88
2023/11/25 08:03:56;;;;;;;0.10;0.10;;;;;;;;;;5017414;28;20442;-88
2023/11/25 08:06:25;;;;;;;0.10;0.10;;;;;;;;;;5017034;28;20054;-88
2023/11/25 08:08:51;;;;;;;0.10;0.10;;;;;;;;;;5016760;28;20543;-88
2023/11/25 08:11:24;;;;;;;0.10;0.10;;;;;;;;;;5000623;28;20041;-88
2023/11/25 08:13:50;;;;;;;0.10;0.10;;;;;;;;;;5017108;28;20044;-87
2023/11/25 08:16:18;;;;;;;0.10;0.10;;;;;;;;;;5017440;28;20404;-87
2023/11/25 08:18:44;;;;;;;0.10;0.10;;;;;;;;;;5017061;28;20435;-87
2023/11/25 08:21:10;;;;;;;0.10;0.10;;;;;;;;;;5000250;28;20038;-88
2023/11/25 08:23:36;;;;;;;0.10;0.10;;;;;;;;;;5001226;28;20045;-95
2023/11/25 08:26:02;;;;;;;0.10;0.10;;;;;;;;;;5017678;28;20045;-93
2023/11/25 08:28:28;;;;;;;0.10;0.10;;;;;;;;;;5017032;28;20033;-88
2023/11/25 08:30:54;;;;;;;0.10;0.10;;;;;;;;;;5016474;28;20064;-88
2023/11/25 08:33:20;;;;;;;0.10;0.10;;;;;;;;;;5016532;28;20038;-87
2023/11/25 08:35:46;;;;;;;0.10;0.10;;;;;;;;;;5016698;28;20041;-88
2023/11/25 08:38:13;;;;;;;0.10;0.10;;;;;;;;;;5015826;28;20037;-88
2023/11/25 08:40:41;;;;;;;0.10;0.10;;;;;;;;;;5000270;28;20281;-87
2023/11/25 08:43:12;;;;;;;0.10;0.10;;;;;;;;;;5000845;28;20045;-89
2023/11/25 08:45:38;;;;;;;0.10;0.10;;;;;;;;;;5000981;28;20061;-90
2023/11/25 08:48:07;;;;;;;0.10;0.10;;;;;;;;;;5016592;28;20048;-89
2023/11/25 08:50:33;;;;;;;0.77;0.77;;;;;;;;;;5016787;28;20117;-89
2023/11/25 08:53:02;;;;;;;0.10;0.10;;;;;;;;;;5016948;28;20489;-88
2023/11/25 08:55:28;;;;;;;0.10;0.10;;;;;;;;;;5000542;28;20072;-90
2023/11/25 08:57:54;;;;;;;0.10;0.10;;;;;;;;;;5016683;28;20128;-91
2023/11/25 09:00:20;;;;;;;0.10;0.10;;;;;;;;;;5000575;28;20088;-88
2023/11/25 09:02:48;;;;;;;0.10;0.10;;;;;;;;;;5016418;28;20052;-91
2023/11/25 09:05:14;;;;;;;0.17;0.17;;;;;;;;;;5000271;28;20045;-91
2023/11/25 09:07:41;;;;;;;0.17;0.17;;;;;;;;;;5000396;28;20192;-91
2023/11/25 09:10:08;;;;;;;0.10;0.10;;;;;;;;;;5016481;28;20069;-90
2023/11/25 09:12:35;;;;;;;0.10;0.10;;;;;;;;;;5000546;28;20068;-89
2023/11/25 09:15:04;;;;;;;0.20;0.20;;;;;;;;;;5032404;28;20041;-89
2023/11/25 09:17:32;;;;;;;0.10;0.10;;;;;;;;;;5000275;28;20041;-89
2023/11/25 09:19:59;;;;;;;0.10;0.10;;;;;;;;;;5017557;28;20041;-89
2023/11/25 09:22:25;;;;;;;0.10;0.10;;;;;;;;;;5000100;28;20041;-89
2023/11/25 09:24:51;;;;;;;0.10;0.10;;;;;;;;;;4999744;28;20422;-91
2023/11/25 09:27:18;;;;;;;0.10;0.10;;;;;;;;;;5016287;28;20045;-91
2023/11/25 09:29:45;;;;;;;0.52;0.52;;;;;;;;;;5015674;28;20040;-90
2023/11/25 09:32:12;;;;;;;0.10;0.10;;;;;;;;;;4999585;28;20143;-90
2023/11/25 09:34:39;;;;;;;0.10;0.10;;;;;;;;;;5015962;28;20045;-89
2023/11/25 09:37:07;;;;;;;0.20;0.20;;;;;;;;;;5015477;28;20037;-89
2023/11/25 09:39:33;;;;;;;0.10;0.10;;;;;;;;;;4999537;28;20128;-89
2023/11/25 09:42:00;;;;;;;0.10;0.10;;;;;;;;;;4999178;28;20049;-89
2023/11/25 09:44:26;;;;;;;0.10;0.10;;;;;;;;;;5015345;28;20038;-88
2023/11/25 09:46:52;;;;;;;0.10;0.10;;;;;;;;;;4999002;28;20091;-89
2023/11/25 09:49:18;;;;;;;0.22;0.22;;;;;;;;;;4998148;28;20064;-89
2023/11/25 09:51:46;;;;;;;0.20;0.20;;;;;;;;;;5015230;28;20041;-89
2023/11/25 09:54:13;;;;;;;0.10;0.10;;;;;;;;;;4999172;28;20041;-96
2023/11/25 09:56:39;;;;;;;0.10;0.10;;;;;;;;;;4999697;28;20088;-89
2023/11/25 09:59:05;;;;;;;0.30;0.30;;;;;;;;;;5015382;28;20081;-89
2023/11/25 10:01:32;;;;;;;0.10;0.10;;;;;;;;;;5015462;28;20128;-88
2023/11/25 10:03:58;;;;;;;0.10;0.10;;;;;;;;;;5021957;28;20047;-88
2023/11/25 10:06:25;;;;;;;0.10;0.10;;;;;;;;;;5034813;28;20041;-88
2023/11/25 10:08:51;;;;;;;0.38;0.38;;;;;;;;;;5035317;28;20068;-88
2023/11/25 10:11:21;;;;;;;0.10;0.10;;;;;;;;;;5018075;28;20037;-89
2023/11/25 10:13:47;;;;;;;0.43;0.43;;;;;;;;;;5020438;28;20158;-89
2023/11/25 10:16:16;;;;;;;0.10;0.10;;;;;;;;;;5034673;28;20056;-88
2023/11/25 10:18:42;;;;;;;0.20;0.20;;;;;;;;;;5018435;28;20048;-88
2023/11/25 10:21:08;;;;;;;0.10;0.10;;;;;;;;;;5034475;28;20059;-88
2023/11/25 10:23:36;;;;;;;0.10;0.10;;;;;;;;;;5034597;28;20061;-89
2023/11/25 10:26:06;;;;;;;0.20;0.20;;;;;;;;;;5050838;28;20044;-88
2023/11/25 10:28:36;;;;;;;0.10;0.10;;;;;;;;;;5035134;28;20041;-89
2023/11/25 10:31:05;;;;;;;0.10;0.10;;;;;;;;;;5034896;28;20065;-90
2023/11/25 10:33:32;;;;;;;0.10;0.10;;;;;;;;;;5034718;28;20408;-89
2023/11/25 10:35:58;;;;;;;0.10;0.10;;;;;;;;;;5038962;28;20064;-88
2023/11/25 10:38:27;;;;;;;0.10;0.10;;;;;;;;;;5034838;28;20076;-88
2023/11/25 10:40:59;;;;;;;0.10;0.10;;;;;;;;;;5034969;28;20053;-89
2023/11/25 10:43:26;;;;;;;0.10;0.10;;;;;;;;;;5034580;28;20040;-89
2023/11/25 10:46:05;;;;;;;0.10;0.10;;;;;;;;;;5018025;28;20140;-89
2023/11/25 10:48:32;;;;;;;0.10;0.10;;;;;;;;;;5034242;28;20037;-89
2023/11/25 10:50:58;;;;;;;0.10;0.10;;;;;;;;;;5016577;28;20111;-88
2023/11/25 10:53:24;;;;;;;0.10;0.10;;;;;;;;;;5033949;28;20045;-88
2023/11/25 10:55:50;;;;;;;0.10;0.10;;;;;;;;;;5017920;28;20384;-89
2023/11/25 10:58:16;;;;;;;0.20;0.20;;;;;;;;;;5017466;28;20044;-88
2023/11/25 11:00:42;;;;;;;0.10;0.10;;;;;;;;;;5036038;28;20056;-88
2023/11/25 11:03:09;;;;;;;0.10;0.10;;;;;;;;;;5021412;28;20488;-88
2023/11/25 11:05:42;;;;;;;0.10;0.10;;;;;;;;;;5033017;28;20243;-88
2023/11/25 11:08:08;;;;;;;1.35;1.30;;;;;;;;;;5017645;28;20069;-88
2023/11/25 11:10:41;;;;;;;0.17;0.17;;;;;;;;;;5019200;28;20033;-88
2023/11/25 11:13:08;;;;;;;0.10;0.10;;;;;;;;;;5060076;28;20047;-87
2023/11/25 11:15:38;;;;;;;0.10;0.10;;;;;;;;;;5038325;28;20125;-88
2023/11/25 11:18:12;;;;;;;0.10;0.10;;;;;;;;;;5041186;28;20040;-88
2023/11/25 11:20:42;;;;;;;0.10;0.10;;;;;;;;;;5041182;28;20067;-88
2023/11/25 11:23:08;;;;;;;0.10;0.10;;;;;;;;;;5074414;28;20045;-88
2023/11/25 11:25:44;;;;;;;0.10;0.10;;;;;;;;;;5057557;28;20541;-89
2023/11/25 11:28:17;;;;;;;0.10;0.10;;;;;;;;;;5003195;28;20042;-89
2023/11/25 11:31:02;;;;;;;0.10;0.10;;;;;;;;;;5001218;28;20064;-89
2023/11/25 11:33:30;;;;;;;0.20;0.20;;;;;;;;;;5034070;28;20037;-88
2023/11/25 11:35:57;;;;;;;0.10;0.10;;;;;;;;;;5001647;28;20044;-89
2023/11/25 11:38:23;;;;;;;0.10;0.10;;;;;;;;;;5001573;28;20489;-90
2023/11/25 11:40:51;;;;;;;0.10;0.10;;;;;;;;;;5034363;28;20079;-90
2023/11/25 11:43:18;;;;;;;0.10;0.10;;;;;;;;;;5017794;28;20077;-89
2023/11/25 11:45:44;;;;;;;0.10;0.10;;;;;;;;;;5001497;28;20077;-91
2023/11/25 11:48:13;;;;;;;0.10;0.10;;;;;;;;;;5018047;28;20087;-89
2023/11/25 11:50:41;;;;;;;0.10;0.10;;;;;;;;;;5001663;28;20189;-87
2023/11/25 11:53:12;;;;;;;0.10;0.10;;;;;;;;;;5004923;28;20073;-88
2023/11/25 11:55:42;;;;;;;0.10;0.10;;;;;;;;;;5033961;28;20095;-90
2023/11/25 11:58:08;;;;;;;0.10;0.10;;;;;;;;;;5001356;28;20041;-89
2023/11/25 12:00:40;;;;;;;0.10;0.10;;;;;;;;;;5017441;28;20091;-88
2023/11/25 12:03:07;;;;;;;0.10;0.10;;;;;;;;;;5017479;28;20045;-91
2023/11/25 12:05:34;;;;;;;0.10;0.10;;;;;;;;;;5001326;28;20128;-91
2023/11/25 12:08:00;;;;;;;0.10;0.10;;;;;;;;;;5017683;28;20038;-92
2023/11/25 12:10:26;;;;;;;0.10;0.10;;;;;;;;;;5001731;28;20128;-90
2023/11/25 12:12:53;;;;;;;0.10;0.10;;;;;;;;;;5013479;28;20045;-90
2023/11/25 12:15:19;;;;;;;0.10;0.10;;;;;;;;;;5036854;28;20083;-91
2023/11/25 12:17:45;;;;;;;0.10;0.10;;;;;;;;;;5037170;28;20452;-90
2023/11/25 12:20:14;;;;;;;0.10;0.10;;;;;;;;;;5037082;28;20087;-89
2023/11/25 12:22:40;;;;;;;0.10;0.10;;;;;;;;;;5036168;28;20381;-90
2023/11/25 12:25:13;;;;;;;0.10;0.10;;;;;;;;;;5052529;28;20033;-90
2023/11/25 12:27:41;;;;;;;0.10;0.10;;;;;;;;;;5050974;28;20040;-90
2023/11/25 12:30:07;;;;;;;0.10;0.10;;;;;;;;;;5056507;28;20047;-90
2023/11/25 12:32:33;;;;;;;0.10;0.10;;;;;;;;;;5057109;28;20540;-89
2023/11/25 12:35:00;;;;;;;0.10;0.10;;;;;;;;;;5040075;28;20036;-89
2023/11/25 12:37:26;;;;;;;0.10;0.10;;;;;;;;;;5021255;28;20044;-90
2023/11/25 12:39:53;;;;;;;0.20;0.20;;;;;;;;;;5020237;28;20055;-90
2023/11/25 12:42:23;;;;;;;0.10;0.10;;;;;;;;;;5029381;28;20131;-90
2023/11/25 12:44:49;;;;;;;0.10;0.10;;;;;;;;;;5040173;28;20104;-90
2023/11/25 12:47:16;;;;;;;0.10;0.10;;;;;;;;;;5056582;28;20533;-90
2023/11/25 12:49:42;;;;;;;0.43;0.43;;;;;;;;;;5040983;28;20033;-90
2023/11/25 12:52:22;;;;;;;0.10;0.10;;;;;;;;;;5035499;28;20041;-91
2023/11/25 12:54:49;;;;;;;0.10;0.10;;;;;;;;;;5027352;28;20135;-91
2023/11/25 12:57:15;;;;;;;0.10;0.10;;;;;;;;;;5044369;28;20041;-91
2023/11/25 12:59:41;;;;;;;0.10;0.10;;;;;;;;;;5039498;28;20032;-91
2023/11/25 13:02:08;;;;;;;0.10;0.10;;;;;;;;;;5039282;28;20036;-90
2023/11/25 13:04:47;;;;;;;0.10;0.10;;;;;;;;;;5056439;28;20032;-93
2023/11/25 13:07:32;;;;;;;0.10;0.10;;;;;;;;;;5039432;28;20044;-91
2023/11/25 13:09:58;;;;;;;0.13;0.13;;;;;;;;;;5032708;28;20066;-90
2023/11/25 13:12:24;;;;;;;0.10;0.10;;;;;;;;;;5019462;28;20503;-91
2023/11/25 13:14:50;;;;;;;0.10;0.10;;;;;;;;;;5019365;28;20041;-91
2023/11/25 13:17:16;;;;;;;0.10;0.10;;;;;;;;;;5019352;28;20095;-91
2023/11/25 13:19:50;;;;;;;0.10;0.10;;;;;;;;;;5019395;28;20040;-90
2023/11/25 13:22:16;;;;;;;0.10;0.10;;;;;;;;;;5019329;28;20094;-91
2023/11/25 13:24:45;;;;;;;0.10;0.10;;;;;;;;;;5019633;28;20037;-90
2023/11/25 13:27:12;;;;;;;0.10;0.10;;;;;;;;;;5019408;28;20049;-91
2023/11/25 13:29:39;;;;;;;0.10;0.10;;;;;;;;;;5035773;28;20044;-92
2023/11/25 13:32:05;;;;;;;0.10;0.10;;;;;;;;;;5168850;22;20049;-91
2023/11/25 13:34:31;;;;;;;0.10;0.10;;;;;;;;;;5019378;28;20041;-91
2023/11/25 13:36:57;;;;;;;0.10;0.10;;;;;;;;;;5019613;28;20127;-91
2023/11/25 13:39:24;;;;;;;0.10;0.10;;;;;;;;;;5018204;28;20037;-92
2023/11/25 13:41:50;;;;;;;0.10;0.10;;;;;;;;;;4999741;28;20041;-91
2023/11/25 13:44:17;;;;;;;0.10;0.10;;;;;;;;;;4999785;28;20056;-91
2023/11/25 13:46:43;;;;;;;0.10;0.10;;;;;;;;;;4999706;28;20435;-91
2023/11/25 13:49:09;;;;;;;0.20;0.20;;;;;;;;;;4999761;28;20041;-90
2023/11/25 13:51:35;;;;;;;0.10;0.10;;;;;;;;;;5015837;28;20046;-91
2023/11/25 13:54:02;;;;;;;0.10;0.10;;;;;;;;;;4999636;28;20044;-89
2023/11/25 13:56:28;;;;;;;0.20;0.20;;;;;;;;;;5016369;28;20493;-92
2023/11/25 13:58:55;;;;;;;0.10;0.10;;;;;;;;;;4999478;28;20037;-92
2023/11/25 14:01:21;;;;;;;0.10;0.10;;;;;;;;;;4999402;28;20047;-92
2023/11/25 14:03:49;;;;;;;0.10;0.10;;;;;;;;;;4997158;28;20037;-92
2023/11/25 14:06:15;;;;;;;0.10;0.10;;;;;;;;;;4999549;28;20128;-92
2023/11/25 14:08:41;;;;;;;0.10;0.10;;;;;;;;;;4998905;28;20057;-91
2023/11/25 14:11:07;;;;;;;0.10;0.10;;;;;;;;;;4999006;28;20048;-92
2023/11/25 14:13:33;;;;;;;0.10;0.10;;;;;;;;;;4998409;28;20524;-92
2023/11/25 14:16:04;;;;;;;0.10;0.10;;;;;;;;;;4999084;28;20137;-93
2023/11/25 14:18:31;;;;;;;0.10;0.10;;;;;;;;;;4998949;28;20083;-93
2023/11/25 14:20:57;;;;;;;0.10;0.10;;;;;;;;;;4998040;28;20068;-91
2023/11/25 14:23:23;;;;;;;0.10;0.10;;;;;;;;;;4999151;28;20041;-92
2023/11/25 14:25:49;;;;;;;0.10;0.10;;;;;;;;;;4999011;28;20501;-91
2023/11/25 14:28:16;;;;;;;0.10;0.10;;;;;;;;;;4999525;28;20397;-93
2023/11/25 14:30:43;;;;;;;0.10;0.10;;;;;;;;;;4999233;28;20076;-93
2023/11/25 14:33:09;;;;;;;0.10;0.10;;;;;;;;;;5015279;28;20053;-92
2023/11/25 14:35:36;;;;;;;0.10;0.10;;;;;;;;;;4998610;28;20041;-93
2023/11/25 14:38:03;;;;;;;0.10;0.10;;;;;;;;;;4998950;28;20152;-92
2023/11/25 14:40:31;;;;;;;0.10;0.10;;;;;;;;;;4999265;28;20115;-92
2023/11/25 14:42:57;;;;;;;0.10;0.10;;;;;;;;;;4999320;28;20064;-92